sensor_id;sensor_type;location;lat;lon;timestamp;P1;durP1;ratioP1;P2;durP2;ratioP2
69594;SDS011;56800;52.142;5.364;2022-12-24T00:00:58;23.17;;;3.67;;
69594;SDS011;56800;52.142;5.364;2022-12-24T00:03:25;37.17;;;4.22;;
69594;SDS011;56800;52.142;5.364;2022-12-24T00:05:52;28.88;;;3.90;;
69594;SDS011;56800;52.142;5.364;2022-12-24T00:08:19;27.45;;;3.90;;
69594;SDS011;56800;52.142;5.364;2022-12-24T00:10:49;25.67;;;4.67;;
69594;SDS011;56800;52.142;5.364;2022-12-24T00:13:17;30.20;;;4.28;;
69594;SDS011;56800;52.142;5.364;2022-12-24T00:15:44;37.67;;;4.63;;
69594;SDS011;56800;52.142;5.364;2022-12-24T00:18:11;31.40;;;4.05;;
69594;SDS011;56800;52.142;5.364;2022-12-24T00:20:38;29.63;;;3.90;;
69594;SDS011;56800;52.142;5.364;2022-12-24T00:23:04;28.80;;;4.47;;
69594;SDS011;56800;52.142;5.364;2022-12-24T00:25:31;31.65;;;4.47;;
69594;SDS011;56800;52.142;5.364;2022-12-24T00:27:58;32.13;;;4.30;;
69594;SDS011;56800;52.142;5.364;2022-12-24T00:30:25;29.05;;;3.75;;
69594;SDS011;56800;52.142;5.364;2022-12-24T00:32:52;38.30;;;4.90;;
69594;SDS011;56800;52.142;5.364;2022-12-24T00:35:18;34.20;;;5.00;;
69594;SDS011;56800;52.142;5.364;2022-12-24T00:37:48;37.95;;;4.57;;
69594;SDS011;56800;52.142;5.364;2022-12-24T00:40:15;35.28;;;4.50;;
69594;SDS011;56800;52.142;5.364;2022-12-24T00:42:43;38.08;;;4.35;;
69594;SDS011;56800;52.142;5.364;2022-12-24T00:45:10;29.17;;;3.80;;
69594;SDS011;56800;52.142;5.364;2022-12-24T00:47:37;39.17;;;4.60;;
69594;SDS011;56800;52.142;5.364;2022-12-24T00:50:04;33.67;;;4.53;;
69594;SDS011;56800;52.142;5.364;2022-12-24T00:52:31;35.15;;;5.28;;
69594;SDS011;56800;52.142;5.364;2022-12-24T00:54:58;37.42;;;4.80;;
69594;SDS011;56800;52.142;5.364;2022-12-24T00:57:24;34.10;;;5.20;;
69594;SDS011;56800;52.142;5.364;2022-12-24T00:59:51;33.50;;;4.33;;
69594;SDS011;56800;52.142;5.364;2022-12-24T01:02:18;34.80;;;4.28;;
69594;SDS011;56800;52.142;5.364;2022-12-24T01:04:45;45.70;;;5.00;;
69594;SDS011;56800;52.142;5.364;2022-12-24T01:07:30;32.00;;;4.22;;
69594;SDS011;56800;52.142;5.364;2022-12-24T01:09:57;32.03;;;4.20;;
69594;SDS011;56800;52.142;5.364;2022-12-24T01:12:23;42.57;;;4.23;;
69594;SDS011;56800;52.142;5.364;2022-12-24T01:14:50;37.70;;;5.07;;
69594;SDS011;56800;52.142;5.364;2022-12-24T01:17:17;29.35;;;3.95;;
69594;SDS011;56800;52.142;5.364;2022-12-24T01:19:44;42.80;;;5.85;;
69594;SDS011;56800;52.142;5.364;2022-12-24T01:22:10;40.80;;;4.88;;
69594;SDS011;56800;52.142;5.364;2022-12-24T01:24:38;30.47;;;4.67;;
69594;SDS011;56800;52.142;5.364;2022-12-24T01:27:06;34.03;;;4.82;;
69594;SDS011;56800;52.142;5.364;2022-12-24T01:29:32;38.17;;;4.80;;
69594;SDS011;56800;52.142;5.364;2022-12-24T01:31:59;33.50;;;4.07;;
69594;SDS011;56800;52.142;5.364;2022-12-24T01:34:26;41.42;;;5.07;;
69594;SDS011;56800;52.142;5.364;2022-12-24T01:36:52;36.57;;;5.47;;
69594;SDS011;56800;52.142;5.364;2022-12-24T01:39:19;38.90;;;4.90;;
69594;SDS011;56800;52.142;5.364;2022-12-24T01:41:46;32.90;;;4.75;;
69594;SDS011;56800;52.142;5.364;2022-12-24T01:44:32;39.97;;;4.93;;
69594;SDS011;56800;52.142;5.364;2022-12-24T01:49:41;42.07;;;5.13;;
69594;SDS011;56800;52.142;5.364;2022-12-24T01:52:35;43.55;;;4.60;;
69594;SDS011;56800;52.142;5.364;2022-12-24T01:55:04;32.67;;;4.32;;
69594;SDS011;56800;52.142;5.364;2022-12-24T01:57:45;40.05;;;5.20;;
69594;SDS011;56800;52.142;5.364;2022-12-24T02:00:16;36.20;;;5.20;;
69594;SDS011;56800;52.142;5.364;2022-12-24T02:02:44;45.07;;;5.43;;
69594;SDS011;56800;52.142;5.364;2022-12-24T02:05:17;38.88;;;4.72;;
69594;SDS011;56800;52.142;5.364;2022-12-24T02:07:44;43.38;;;4.88;;
69594;SDS011;56800;52.142;5.364;2022-12-24T02:10:12;41.05;;;4.97;;
69594;SDS011;56800;52.142;5.364;2022-12-24T02:12:40;43.83;;;5.63;;
69594;SDS011;56800;52.142;5.364;2022-12-24T02:15:09;37.60;;;4.67;;
69594;SDS011;56800;52.142;5.364;2022-12-24T02:17:44;50.15;;;5.22;;
69594;SDS011;56800;52.142;5.364;2022-12-24T02:23:20;39.72;;;4.07;;
69594;SDS011;56800;52.142;5.364;2022-12-24T02:32:04;43.72;;;6.20;;
69594;SDS011;56800;52.142;5.364;2022-12-24T02:34:39;30.90;;;4.47;;
69594;SDS011;56800;52.142;5.364;2022-12-24T02:37:14;44.10;;;5.07;;
69594;SDS011;56800;52.142;5.364;2022-12-24T02:42:14;51.53;;;5.20;;
69594;SDS011;56800;52.142;5.364;2022-12-24T02:44:50;40.85;;;4.15;;
69594;SDS011;56800;52.142;5.364;2022-12-24T02:47:22;43.55;;;4.53;;
69594;SDS011;56800;52.142;5.364;2022-12-24T02:49:51;44.15;;;5.20;;
69594;SDS011;56800;52.142;5.364;2022-12-24T02:52:32;50.55;;;5.32;;
69594;SDS011;56800;52.142;5.364;2022-12-24T02:55:01;41.93;;;4.70;;
69594;SDS011;56800;52.142;5.364;2022-12-24T03:00:12;37.40;;;4.95;;
69594;SDS011;56800;52.142;5.364;2022-12-24T03:05:59;46.38;;;4.65;;
69594;SDS011;56800;52.142;5.364;2022-12-24T03:08:54;34.53;;;4.47;;
69594;SDS011;56800;52.142;5.364;2022-12-24T03:11:32;40.72;;;4.35;;
69594;SDS011;56800;52.142;5.364;2022-12-24T03:14:01;48.53;;;7.05;;
69594;SDS011;56800;52.142;5.364;2022-12-24T03:16:28;38.75;;;4.70;;
69594;SDS011;56800;52.142;5.364;2022-12-24T03:18:55;43.00;;;4.80;;
69594;SDS011;56800;52.142;5.364;2022-12-24T03:21:28;34.87;;;4.03;;
69594;SDS011;56800;52.142;5.364;2022-12-24T03:24:00;35.97;;;3.67;;
69594;SDS011;56800;52.142;5.364;2022-12-24T03:26:29;53.40;;;5.18;;
69594;SDS011;56800;52.142;5.364;2022-12-24T03:28:58;43.05;;;4.25;;
69594;SDS011;56800;52.142;5.364;2022-12-24T03:31:25;44.55;;;4.38;;
69594;SDS011;56800;52.142;5.364;2022-12-24T03:33:52;37.80;;;3.97;;
69594;SDS011;56800;52.142;5.364;2022-12-24T03:36:19;38.03;;;3.72;;
69594;SDS011;56800;52.142;5.364;2022-12-24T03:38:46;40.67;;;4.55;;
69594;SDS011;56800;52.142;5.364;2022-12-24T03:41:12;31.67;;;4.32;;
69594;SDS011;56800;52.142;5.364;2022-12-24T03:43:39;30.63;;;4.10;;
69594;SDS011;56800;52.142;5.364;2022-12-24T03:46:06;40.87;;;4.57;;
69594;SDS011;56800;52.142;5.364;2022-12-24T03:48:33;42.03;;;3.95;;
69594;SDS011;56800;52.142;5.364;2022-12-24T03:51:01;41.75;;;4.25;;
69594;SDS011;56800;52.142;5.364;2022-12-24T03:53:28;45.22;;;5.43;;
69594;SDS011;56800;52.142;5.364;2022-12-24T03:55:56;43.15;;;4.70;;
69594;SDS011;56800;52.142;5.364;2022-12-24T03:58:23;42.30;;;3.80;;
69594;SDS011;56800;52.142;5.364;2022-12-24T04:00:51;48.15;;;5.20;;
69594;SDS011;56800;52.142;5.364;2022-12-24T04:03:18;43.70;;;4.97;;
69594;SDS011;56800;52.142;5.364;2022-12-24T04:05:45;46.65;;;4.70;;
69594;SDS011;56800;52.142;5.364;2022-12-24T04:08:12;48.00;;;5.45;;
69594;SDS011;56800;52.142;5.364;2022-12-24T04:10:38;55.00;;;5.07;;
69594;SDS011;56800;52.142;5.364;2022-12-24T04:13:05;54.10;;;5.65;;
69594;SDS011;56800;52.142;5.364;2022-12-24T04:15:32;48.63;;;5.47;;
69594;SDS011;56800;52.142;5.364;2022-12-24T04:17:58;55.88;;;5.35;;
69594;SDS011;56800;52.142;5.364;2022-12-24T04:20:25;48.00;;;4.82;;
69594;SDS011;56800;52.142;5.364;2022-12-24T04:22:51;49.50;;;4.77;;
69594;SDS011;56800;52.142;5.364;2022-12-24T04:25:19;60.67;;;5.35;;
69594;SDS011;56800;52.142;5.364;2022-12-24T04:27:45;56.92;;;5.18;;
69594;SDS011;56800;52.142;5.364;2022-12-24T04:30:12;40.25;;;5.82;;
69594;SDS011;56800;52.142;5.364;2022-12-24T04:32:38;45.00;;;5.50;;
69594;SDS011;56800;52.142;5.364;2022-12-24T04:35:05;54.60;;;5.43;;
69594;SDS011;56800;52.142;5.364;2022-12-24T04:37:32;54.92;;;5.60;;
69594;SDS011;56800;52.142;5.364;2022-12-24T04:39:59;46.88;;;4.80;;
69594;SDS011;56800;52.142;5.364;2022-12-24T04:42:26;47.50;;;4.63;;
69594;SDS011;56800;52.142;5.364;2022-12-24T04:44:52;56.97;;;6.00;;
69594;SDS011;56800;52.142;5.364;2022-12-24T04:47:19;46.57;;;5.27;;
69594;SDS011;56800;52.142;5.364;2022-12-24T04:49:45;48.85;;;5.07;;
69594;SDS011;56800;52.142;5.364;2022-12-24T04:52:12;49.65;;;5.55;;
69594;SDS011;56800;52.142;5.364;2022-12-24T04:54:39;42.70;;;5.22;;
69594;SDS011;56800;52.142;5.364;2022-12-24T04:57:05;50.75;;;5.40;;
69594;SDS011;56800;52.142;5.364;2022-12-24T04:59:32;38.33;;;4.47;;
69594;SDS011;56800;52.142;5.364;2022-12-24T05:01:58;43.67;;;4.88;;
69594;SDS011;56800;52.142;5.364;2022-12-24T05:04:25;56.78;;;6.15;;
69594;SDS011;56800;52.142;5.364;2022-12-24T05:06:52;43.13;;;4.85;;
69594;SDS011;56800;52.142;5.364;2022-12-24T05:09:19;44.88;;;4.45;;
69594;SDS011;56800;52.142;5.364;2022-12-24T05:11:45;38.10;;;4.50;;
69594;SDS011;56800;52.142;5.364;2022-12-24T05:14:12;46.78;;;4.75;;
69594;SDS011;56800;52.142;5.364;2022-12-24T05:16:38;53.53;;;5.10;;
69594;SDS011;56800;52.142;5.364;2022-12-24T05:19:06;42.25;;;4.78;;
69594;SDS011;56800;52.142;5.364;2022-12-24T05:21:32;47.40;;;4.40;;
69594;SDS011;56800;52.142;5.364;2022-12-24T05:23:59;50.23;;;4.87;;
69594;SDS011;56800;52.142;5.364;2022-12-24T05:27:04;45.28;;;4.55;;
69594;SDS011;56800;52.142;5.364;2022-12-24T05:29:30;41.75;;;4.47;;
69594;SDS011;56800;52.142;5.364;2022-12-24T05:31:57;47.70;;;4.90;;
69594;SDS011;56800;52.142;5.364;2022-12-24T05:34:24;43.50;;;4.90;;
69594;SDS011;56800;52.142;5.364;2022-12-24T05:36:50;42.17;;;4.67;;
69594;SDS011;56800;52.142;5.364;2022-12-24T05:39:17;49.63;;;4.70;;
69594;SDS011;56800;52.142;5.364;2022-12-24T05:41:44;38.08;;;4.22;;
69594;SDS011;56800;52.142;5.364;2022-12-24T05:44:12;37.72;;;4.32;;
69594;SDS011;56800;52.142;5.364;2022-12-24T05:46:39;45.28;;;4.57;;
69594;SDS011;56800;52.142;5.364;2022-12-24T05:49:06;45.50;;;4.50;;
69594;SDS011;56800;52.142;5.364;2022-12-24T05:51:33;50.63;;;4.90;;
69594;SDS011;56800;52.142;5.364;2022-12-24T05:54:00;53.00;;;4.20;;
69594;SDS011;56800;52.142;5.364;2022-12-24T05:56:27;43.20;;;5.28;;
69594;SDS011;56800;52.142;5.364;2022-12-24T05:58:54;43.05;;;5.78;;
69594;SDS011;56800;52.142;5.364;2022-12-24T06:01:21;35.43;;;3.87;;
69594;SDS011;56800;52.142;5.364;2022-12-24T06:03:48;41.00;;;4.40;;
69594;SDS011;56800;52.142;5.364;2022-12-24T06:06:17;51.90;;;5.07;;
69594;SDS011;56800;52.142;5.364;2022-12-24T06:08:49;48.15;;;4.80;;
69594;SDS011;56800;52.142;5.364;2022-12-24T06:11:17;50.05;;;4.82;;
69594;SDS011;56800;52.142;5.364;2022-12-24T06:13:46;56.47;;;6.77;;
69594;SDS011;56800;52.142;5.364;2022-12-24T06:16:13;58.10;;;5.13;;
69594;SDS011;56800;52.142;5.364;2022-12-24T06:18:41;52.63;;;5.72;;
69594;SDS011;56800;52.142;5.364;2022-12-24T06:21:09;45.35;;;5.05;;
69594;SDS011;56800;52.142;5.364;2022-12-24T06:23:37;44.30;;;5.03;;
69594;SDS011;56800;52.142;5.364;2022-12-24T06:26:06;49.93;;;5.40;;
69594;SDS011;56800;52.142;5.364;2022-12-24T06:28:35;48.72;;;5.95;;
69594;SDS011;56800;52.142;5.364;2022-12-24T06:31:03;51.53;;;5.50;;
69594;SDS011;56800;52.142;5.364;2022-12-24T06:33:32;59.10;;;5.85;;
69594;SDS011;56800;52.142;5.364;2022-12-24T06:35:59;50.35;;;6.55;;
69594;SDS011;56800;52.142;5.364;2022-12-24T06:38:28;66.80;;;5.80;;
69594;SDS011;56800;52.142;5.364;2022-12-24T06:40:56;61.03;;;5.90;;
69594;SDS011;56800;52.142;5.364;2022-12-24T06:43:22;55.42;;;6.75;;
69594;SDS011;56800;52.142;5.364;2022-12-24T06:45:49;66.68;;;5.85;;
69594;SDS011;56800;52.142;5.364;2022-12-24T06:48:16;55.42;;;5.20;;
69594;SDS011;56800;52.142;5.364;2022-12-24T06:50:43;60.77;;;6.30;;
69594;SDS011;56800;52.142;5.364;2022-12-24T06:53:10;61.88;;;6.35;;
69594;SDS011;56800;52.142;5.364;2022-12-24T06:55:37;58.85;;;6.18;;
69594;SDS011;56800;52.142;5.364;2022-12-24T06:58:04;58.13;;;5.80;;
69594;SDS011;56800;52.142;5.364;2022-12-24T07:00:31;58.53;;;6.47;;
69594;SDS011;56800;52.142;5.364;2022-12-24T07:02:58;59.63;;;6.17;;
69594;SDS011;56800;52.142;5.364;2022-12-24T07:05:25;60.95;;;6.35;;
69594;SDS011;56800;52.142;5.364;2022-12-24T07:07:52;64.57;;;6.55;;
69594;SDS011;56800;52.142;5.364;2022-12-24T07:10:19;54.00;;;6.07;;
69594;SDS011;56800;52.142;5.364;2022-12-24T07:12:46;63.70;;;6.70;;
69594;SDS011;56800;52.142;5.364;2022-12-24T07:15:14;74.87;;;6.73;;
69594;SDS011;56800;52.142;5.364;2022-12-24T07:17:41;60.92;;;7.30;;
69594;SDS011;56800;52.142;5.364;2022-12-24T07:20:09;55.88;;;6.05;;
69594;SDS011;56800;52.142;5.364;2022-12-24T07:22:38;59.65;;;5.75;;
69594;SDS011;56800;52.142;5.364;2022-12-24T07:25:05;62.40;;;6.00;;
69594;SDS011;56800;52.142;5.364;2022-12-24T07:27:32;54.23;;;5.87;;
69594;SDS011;56800;52.142;5.364;2022-12-24T07:29:59;50.65;;;5.15;;
69594;SDS011;56800;52.142;5.364;2022-12-24T07:32:25;55.78;;;6.35;;
69594;SDS011;56800;52.142;5.364;2022-12-24T07:34:52;54.55;;;6.93;;
69594;SDS011;56800;52.142;5.364;2022-12-24T07:37:19;61.63;;;6.32;;
69594;SDS011;56800;52.142;5.364;2022-12-24T07:39:46;60.87;;;6.80;;
69594;SDS011;56800;52.142;5.364;2022-12-24T07:42:12;54.85;;;6.15;;
69594;SDS011;56800;52.142;5.364;2022-12-24T07:44:39;44.28;;;5.65;;
69594;SDS011;56800;52.142;5.364;2022-12-24T07:47:06;53.03;;;6.32;;
69594;SDS011;56800;52.142;5.364;2022-12-24T07:49:32;49.55;;;6.95;;
69594;SDS011;56800;52.142;5.364;2022-12-24T07:52:00;57.90;;;5.77;;
69594;SDS011;56800;52.142;5.364;2022-12-24T07:54:27;50.35;;;6.32;;
69594;SDS011;56800;52.142;5.364;2022-12-24T07:56:53;55.40;;;6.00;;
69594;SDS011;56800;52.142;5.364;2022-12-24T07:59:20;58.92;;;6.78;;
69594;SDS011;56800;52.142;5.364;2022-12-24T08:01:47;49.35;;;6.00;;
69594;SDS011;56800;52.142;5.364;2022-12-24T08:04:14;53.07;;;6.00;;
69594;SDS011;56800;52.142;5.364;2022-12-24T08:06:41;48.20;;;5.65;;
69594;SDS011;56800;52.142;5.364;2022-12-24T08:09:07;52.88;;;5.55;;
69594;SDS011;56800;52.142;5.364;2022-12-24T08:11:34;55.60;;;5.28;;
69594;SDS011;56800;52.142;5.364;2022-12-24T08:14:01;57.67;;;6.38;;
69594;SDS011;56800;52.142;5.364;2022-12-24T08:16:27;43.80;;;5.30;;
69594;SDS011;56800;52.142;5.364;2022-12-24T08:18:54;49.95;;;5.40;;
69594;SDS011;56800;52.142;5.364;2022-12-24T08:21:21;54.83;;;7.47;;
69594;SDS011;56800;52.142;5.364;2022-12-24T08:23:47;48.45;;;5.43;;
69594;SDS011;56800;52.142;5.364;2022-12-24T08:26:14;51.08;;;5.70;;
69594;SDS011;56800;52.142;5.364;2022-12-24T08:28:40;60.30;;;6.57;;
69594;SDS011;56800;52.142;5.364;2022-12-24T08:31:07;49.05;;;5.25;;
69594;SDS011;56800;52.142;5.364;2022-12-24T08:33:34;53.13;;;6.95;;
69594;SDS011;56800;52.142;5.364;2022-12-24T08:36:01;40.90;;;5.05;;
69594;SDS011;56800;52.142;5.364;2022-12-24T08:38:28;52.20;;;6.25;;
69594;SDS011;56800;52.142;5.364;2022-12-24T08:40:55;53.10;;;5.20;;
69594;SDS011;56800;52.142;5.364;2022-12-24T08:43:21;50.60;;;5.50;;
69594;SDS011;56800;52.142;5.364;2022-12-24T08:45:50;57.13;;;7.35;;
69594;SDS011;56800;52.142;5.364;2022-12-24T08:48:17;51.47;;;5.80;;
69594;SDS011;56800;52.142;5.364;2022-12-24T08:50:44;47.50;;;5.30;;
69594;SDS011;56800;52.142;5.364;2022-12-24T08:53:11;53.70;;;6.30;;
69594;SDS011;56800;52.142;5.364;2022-12-24T08:55:38;52.00;;;6.35;;
69594;SDS011;56800;52.142;5.364;2022-12-24T08:58:05;54.17;;;6.32;;
69594;SDS011;56800;52.142;5.364;2022-12-24T09:00:31;55.40;;;6.10;;
69594;SDS011;56800;52.142;5.364;2022-12-24T09:02:58;49.38;;;6.20;;
69594;SDS011;56800;52.142;5.364;2022-12-24T09:05:25;62.80;;;6.37;;
69594;SDS011;56800;52.142;5.364;2022-12-24T09:07:52;58.40;;;6.57;;
69594;SDS011;56800;52.142;5.364;2022-12-24T09:10:18;57.10;;;6.30;;
69594;SDS011;56800;52.142;5.364;2022-12-24T09:12:45;50.75;;;5.75;;
69594;SDS011;56800;52.142;5.364;2022-12-24T09:15:12;57.13;;;6.05;;
69594;SDS011;56800;52.142;5.364;2022-12-24T09:17:39;47.60;;;5.70;;
69594;SDS011;56800;52.142;5.364;2022-12-24T09:20:06;46.40;;;5.90;;
69594;SDS011;56800;52.142;5.364;2022-12-24T09:22:34;54.35;;;6.75;;
69594;SDS011;56800;52.142;5.364;2022-12-24T09:25:02;47.40;;;5.70;;
69594;SDS011;56800;52.142;5.364;2022-12-24T09:27:31;53.05;;;6.47;;
69594;SDS011;56800;52.142;5.364;2022-12-24T09:29:58;48.10;;;5.70;;
69594;SDS011;56800;52.142;5.364;2022-12-24T09:32:24;49.80;;;6.35;;
69594;SDS011;56800;52.142;5.364;2022-12-24T09:34:51;59.67;;;7.50;;
69594;SDS011;56800;52.142;5.364;2022-12-24T09:37:17;41.53;;;5.30;;
69594;SDS011;56800;52.142;5.364;2022-12-24T09:39:44;48.97;;;8.30;;
69594;SDS011;56800;52.142;5.364;2022-12-24T09:47:25;34.72;;;4.65;;
69594;SDS011;56800;52.142;5.364;2022-12-24T09:53:04;41.20;;;4.68;;
69594;SDS011;56800;52.142;5.364;2022-12-24T09:55:49;44.27;;;5.30;;
69594;SDS011;56800;52.142;5.364;2022-12-24T09:58:24;40.03;;;5.55;;
69594;SDS011;56800;52.142;5.364;2022-12-24T10:00:56;38.50;;;5.15;;
69594;SDS011;56800;52.142;5.364;2022-12-24T10:03:22;36.78;;;4.80;;
69594;SDS011;56800;52.142;5.364;2022-12-24T10:10:52;39.75;;;5.70;;
69594;SDS011;56800;52.142;5.364;2022-12-24T10:16:02;50.90;;;5.57;;
69594;SDS011;56800;52.142;5.364;2022-12-24T10:21:31;43.97;;;6.17;;
69594;SDS011;56800;52.142;5.364;2022-12-24T10:26:45;46.83;;;5.55;;
69594;SDS011;56800;52.142;5.364;2022-12-24T10:29:22;44.20;;;4.90;;
69594;SDS011;56800;52.142;5.364;2022-12-24T10:31:54;37.88;;;5.80;;
69594;SDS011;56800;52.142;5.364;2022-12-24T10:34:37;32.67;;;4.60;;
69594;SDS011;56800;52.142;5.364;2022-12-24T10:37:11;41.58;;;5.60;;
69594;SDS011;56800;52.142;5.364;2022-12-24T10:39:42;45.83;;;5.90;;
69594;SDS011;56800;52.142;5.364;2022-12-24T10:42:09;43.45;;;5.25;;
69594;SDS011;56800;52.142;5.364;2022-12-24T10:44:38;39.85;;;5.47;;
69594;SDS011;56800;52.142;5.364;2022-12-24T10:47:06;34.53;;;4.77;;
69594;SDS011;56800;52.142;5.364;2022-12-24T10:49:44;32.80;;;4.70;;
69594;SDS011;56800;52.142;5.364;2022-12-24T10:52:23;37.33;;;4.93;;
69594;SDS011;56800;52.142;5.364;2022-12-24T10:57:29;36.92;;;5.10;;
69594;SDS011;56800;52.142;5.364;2022-12-24T10:59:57;44.23;;;4.83;;
69594;SDS011;56800;52.142;5.364;2022-12-24T11:02:31;41.65;;;5.22;;
69594;SDS011;56800;52.142;5.364;2022-12-24T11:05:26;37.88;;;5.20;;
69594;SDS011;56800;52.142;5.364;2022-12-24T11:08:04;42.70;;;5.68;;
69594;SDS011;56800;52.142;5.364;2022-12-24T11:10:56;35.97;;;4.28;;
69594;SDS011;56800;52.142;5.364;2022-12-24T11:13:28;39.13;;;4.63;;
69594;SDS011;56800;52.142;5.364;2022-12-24T11:18:46;29.10;;;4.28;;
69594;SDS011;56800;52.142;5.364;2022-12-24T11:21:23;34.40;;;4.28;;
69594;SDS011;56800;52.142;5.364;2022-12-24T11:26:37;32.73;;;4.13;;
69594;SDS011;56800;52.142;5.364;2022-12-24T11:29:15;34.63;;;5.03;;
69594;SDS011;56800;52.142;5.364;2022-12-24T11:31:49;36.90;;;5.50;;
69594;SDS011;56800;52.142;5.364;2022-12-24T11:36:50;31.48;;;4.07;;
69594;SDS011;56800;52.142;5.364;2022-12-24T11:39:19;33.17;;;4.60;;
69594;SDS011;56800;52.142;5.364;2022-12-24T11:41:48;31.50;;;4.43;;
69594;SDS011;56800;52.142;5.364;2022-12-24T11:44:22;38.45;;;4.60;;
69594;SDS011;56800;52.142;5.364;2022-12-24T11:46:51;28.85;;;4.25;;
69594;SDS011;56800;52.142;5.364;2022-12-24T11:54:40;28.52;;;4.38;;
69594;SDS011;56800;52.142;5.364;2022-12-24T11:57:08;27.08;;;3.60;;
69594;SDS011;56800;52.142;5.364;2022-12-24T11:59:45;29.55;;;4.30;;
69594;SDS011;56800;52.142;5.364;2022-12-24T12:02:27;23.23;;;4.68;;
69594;SDS011;56800;52.142;5.364;2022-12-24T12:04:59;29.23;;;3.73;;
69594;SDS011;56800;52.142;5.364;2022-12-24T12:07:33;28.73;;;4.18;;
69594;SDS011;56800;52.142;5.364;2022-12-24T12:10:03;32.78;;;4.15;;
69594;SDS011;56800;52.142;5.364;2022-12-24T12:12:43;28.55;;;4.40;;
69594;SDS011;56800;52.142;5.364;2022-12-24T12:15:13;19.90;;;3.15;;
69594;SDS011;56800;52.142;5.364;2022-12-24T12:20:33;27.35;;;4.13;;
69594;SDS011;56800;52.142;5.364;2022-12-24T12:26:14;32.35;;;3.70;;
69594;SDS011;56800;52.142;5.364;2022-12-24T12:28:48;24.85;;;3.72;;
69594;SDS011;56800;52.142;5.364;2022-12-24T12:31:41;36.10;;;4.50;;
69594;SDS011;56800;52.142;5.364;2022-12-24T12:34:16;24.48;;;3.10;;
69594;SDS011;56800;52.142;5.364;2022-12-24T12:37:05;24.20;;;3.92;;
69594;SDS011;56800;52.142;5.364;2022-12-24T12:39:40;21.38;;;3.67;;
69594;SDS011;56800;52.142;5.364;2022-12-24T12:45:03;28.50;;;3.20;;
69594;SDS011;56800;52.142;5.364;2022-12-24T12:50:31;25.73;;;3.30;;
69594;SDS011;56800;52.142;5.364;2022-12-24T12:53:06;19.77;;;2.75;;
69594;SDS011;56800;52.142;5.364;2022-12-24T12:59:01;21.80;;;3.13;;
69594;SDS011;56800;52.142;5.364;2022-12-24T13:07:15;24.90;;;3.33;;
69594;SDS011;56800;52.142;5.364;2022-12-24T13:10:23;24.05;;;3.85;;
69594;SDS011;56800;52.142;5.364;2022-12-24T13:16:04;24.67;;;4.22;;
69594;SDS011;56800;52.142;5.364;2022-12-24T13:19:03;25.02;;;3.60;;
69594;SDS011;56800;52.142;5.364;2022-12-24T13:21:45;18.30;;;3.40;;
69594;SDS011;56800;52.142;5.364;2022-12-24T13:24:18;23.05;;;2.95;;
69594;SDS011;56800;52.142;5.364;2022-12-24T13:27:01;23.07;;;4.30;;
69594;SDS011;56800;52.142;5.364;2022-12-24T13:34:47;20.15;;;3.15;;
69594;SDS011;56800;52.142;5.364;2022-12-24T13:50:39;18.63;;;3.78;;
69594;SDS011;56800;52.142;5.364;2022-12-24T13:58:35;25.45;;;4.00;;
69594;SDS011;56800;52.142;5.364;2022-12-24T14:01:05;27.95;;;3.83;;
69594;SDS011;56800;52.142;5.364;2022-12-24T14:03:49;27.88;;;3.70;;
69594;SDS011;56800;52.142;5.364;2022-12-24T14:06:23;23.87;;;3.67;;
69594;SDS011;56800;52.142;5.364;2022-12-24T14:08:51;28.27;;;4.40;;
69594;SDS011;56800;52.142;5.364;2022-12-24T14:11:21;24.52;;;3.92;;
69594;SDS011;56800;52.142;5.364;2022-12-24T14:14:00;29.60;;;3.85;;
69594;SDS011;56800;52.142;5.364;2022-12-24T14:16:40;25.92;;;3.60;;
69594;SDS011;56800;52.142;5.364;2022-12-24T14:19:11;27.67;;;3.73;;
69594;SDS011;56800;52.142;5.364;2022-12-24T14:21:43;30.13;;;4.28;;
69594;SDS011;56800;52.142;5.364;2022-12-24T14:24:20;25.17;;;4.28;;
69594;SDS011;56800;52.142;5.364;2022-12-24T14:26:56;32.67;;;3.80;;
69594;SDS011;56800;52.142;5.364;2022-12-24T14:29:31;27.55;;;4.57;;
69594;SDS011;56800;52.142;5.364;2022-12-24T14:32:01;37.87;;;4.43;;
69594;SDS011;56800;52.142;5.364;2022-12-24T14:34:37;29.25;;;4.15;;
69594;SDS011;56800;52.142;5.364;2022-12-24T14:37:04;29.73;;;4.00;;
69594;SDS011;56800;52.142;5.364;2022-12-24T14:39:32;28.95;;;4.35;;
69594;SDS011;56800;52.142;5.364;2022-12-24T14:42:03;31.35;;;4.38;;
69594;SDS011;56800;52.142;5.364;2022-12-24T14:47:45;31.80;;;4.38;;
69594;SDS011;56800;52.142;5.364;2022-12-24T14:56:31;26.88;;;4.22;;
69594;SDS011;56800;52.142;5.364;2022-12-24T14:58:58;24.10;;;4.47;;
69594;SDS011;56800;52.142;5.364;2022-12-24T15:01:30;32.80;;;4.28;;
69594;SDS011;56800;52.142;5.364;2022-12-24T15:04:13;30.73;;;4.57;;
69594;SDS011;56800;52.142;5.364;2022-12-24T15:06:42;34.13;;;4.45;;
69594;SDS011;56800;52.142;5.364;2022-12-24T15:09:19;30.40;;;4.18;;
69594;SDS011;56800;52.142;5.364;2022-12-24T15:11:47;28.43;;;4.20;;
69594;SDS011;56800;52.142;5.364;2022-12-24T15:14:16;30.77;;;4.43;;
69594;SDS011;56800;52.142;5.364;2022-12-24T15:17:03;32.20;;;4.10;;
69594;SDS011;56800;52.142;5.364;2022-12-24T15:19:35;27.17;;;4.20;;
69594;SDS011;56800;52.142;5.364;2022-12-24T15:22:06;32.30;;;4.03;;
69594;SDS011;56800;52.142;5.364;2022-12-24T15:24:43;28.67;;;4.33;;
69594;SDS011;56800;52.142;5.364;2022-12-24T15:27:13;33.50;;;4.18;;
69594;SDS011;56800;52.142;5.364;2022-12-24T15:29:48;35.63;;;4.90;;
69594;SDS011;56800;52.142;5.364;2022-12-24T15:32:18;28.42;;;4.53;;
69594;SDS011;56800;52.142;5.364;2022-12-24T15:34:47;30.13;;;4.80;;
69594;SDS011;56800;52.142;5.364;2022-12-24T15:37:17;30.87;;;5.03;;
69594;SDS011;56800;52.142;5.364;2022-12-24T15:39:57;31.67;;;5.00;;
69594;SDS011;56800;52.142;5.364;2022-12-24T15:42:30;36.55;;;4.88;;
69594;SDS011;56800;52.142;5.364;2022-12-24T15:47:34;36.90;;;4.80;;
69594;SDS011;56800;52.142;5.364;2022-12-24T15:50:10;29.33;;;4.10;;
69594;SDS011;56800;52.142;5.364;2022-12-24T15:53:02;34.50;;;4.53;;
69594;SDS011;56800;52.142;5.364;2022-12-24T15:55:58;40.15;;;5.90;;
69594;SDS011;56800;52.142;5.364;2022-12-24T15:58:40;37.25;;;4.95;;
69594;SDS011;56800;52.142;5.364;2022-12-24T16:03:38;29.57;;;4.17;;
69594;SDS011;56800;52.142;5.364;2022-12-24T16:06:14;43.30;;;4.25;;
69594;SDS011;56800;52.142;5.364;2022-12-24T16:08:42;36.70;;;4.63;;
69594;SDS011;56800;52.142;5.364;2022-12-24T16:11:10;35.90;;;4.28;;
69594;SDS011;56800;52.142;5.364;2022-12-24T16:13:42;24.38;;;3.60;;
69594;SDS011;56800;52.142;5.364;2022-12-24T16:16:29;41.03;;;4.73;;
69594;SDS011;56800;52.142;5.364;2022-12-24T16:18:59;33.83;;;4.70;;
69594;SDS011;56800;52.142;5.364;2022-12-24T16:21:31;33.92;;;4.72;;
69594;SDS011;56800;52.142;5.364;2022-12-24T16:26:46;45.20;;;5.05;;
69594;SDS011;56800;52.142;5.364;2022-12-24T16:29:13;39.30;;;6.33;;
69594;SDS011;56800;52.142;5.364;2022-12-24T16:31:45;42.65;;;6.07;;
69594;SDS011;56800;52.142;5.364;2022-12-24T16:34:15;44.42;;;5.30;;
69594;SDS011;56800;52.142;5.364;2022-12-24T16:36:43;35.22;;;4.75;;
69594;SDS011;56800;52.142;5.364;2022-12-24T16:39:33;37.50;;;5.13;;
69594;SDS011;56800;52.142;5.364;2022-12-24T16:42:00;36.17;;;5.17;;
69594;SDS011;56800;52.142;5.364;2022-12-24T16:44:47;46.70;;;5.53;;
69594;SDS011;56800;52.142;5.364;2022-12-24T16:47:19;35.88;;;4.65;;
69594;SDS011;56800;52.142;5.364;2022-12-24T16:49:47;33.97;;;4.65;;
69594;SDS011;56800;52.142;5.364;2022-12-24T16:52:16;36.15;;;5.00;;
69594;SDS011;56800;52.142;5.364;2022-12-24T16:54:48;51.83;;;5.57;;